createdAt,value
2018-09-26T00:01:02.863Z,10.80
2018-09-26T00:03:35.925Z,10.80
2018-09-26T00:06:04.453Z,10.80
2018-09-26T00:08:33.002Z,10.80
2018-09-26T00:11:01.525Z,10.90
2018-09-26T00:13:30.535Z,10.80
2018-09-26T00:15:59.048Z,10.80
2018-09-26T00:18:27.721Z,10.80
2018-09-26T00:20:56.293Z,10.90
2018-09-26T00:23:24.809Z,10.90
2018-09-26T00:25:53.339Z,10.80
2018-09-26T00:28:22.028Z,10.90
2018-09-26T00:30:50.548Z,10.90
2018-09-26T00:33:19.088Z,10.90
2018-09-26T00:35:47.835Z,10.80
2018-09-26T00:38:16.389Z,10.80
2018-09-26T00:40:44.920Z,10.80
2018-09-26T00:43:13.477Z,10.80
2018-09-26T00:45:42.010Z,10.80
2018-09-26T00:48:10.537Z,10.80
2018-09-26T00:50:39.234Z,10.80
2018-09-26T00:53:07.777Z,10.80
2018-09-26T00:55:36.566Z,10.80
2018-09-26T00:58:05.130Z,10.90
2018-09-26T01:00:33.645Z,10.90
2018-09-26T01:03:02.202Z,10.90
2018-09-26T01:05:30.729Z,10.90
2018-09-26T01:07:59.381Z,10.90
2018-09-26T01:10:27.901Z,11.00
2018-09-26T01:12:56.413Z,11.00
2018-09-26T01:15:24.945Z,11.00
2018-09-26T01:17:53.476Z,10.90
2018-09-26T01:20:21.996Z,11.00
2018-09-26T01:22:50.661Z,11.00
2018-09-26T01:25:19.209Z,11.00
2018-09-26T01:27:47.726Z,11.00
2018-09-26T01:30:16.285Z,11.00
2018-09-26T01:32:45.037Z,11.00
2018-09-26T01:35:13.561Z,11.00
2018-09-26T01:37:42.081Z,11.10
2018-09-26T01:40:10.625Z,11.10
2018-09-26T01:42:39.513Z,11.10
2018-09-26T01:45:08.426Z,11.10
2018-09-26T01:47:36.949Z,11.10
2018-09-26T01:50:05.503Z,11.10
2018-09-26T01:52:34.025Z,11.10
2018-09-26T01:55:02.541Z,11.20
2018-09-26T01:57:31.088Z,11.10
2018-09-26T02:00:00.008Z,11.10
2018-09-26T02:02:28.538Z,11.10
2018-09-26T02:04:57.105Z,11.10
2018-09-26T02:07:25.624Z,11.10
2018-09-26T02:09:54.140Z,11.10
2018-09-26T02:12:22.669Z,11.10
2018-09-26T02:14:51.202Z,11.10
2018-09-26T02:17:19.926Z,11.10
2018-09-26T02:19:48.452Z,11.10
2018-09-26T02:22:16.972Z,11.10
2018-09-26T02:24:45.505Z,11.10
2018-09-26T02:27:14.022Z,11.20
2018-09-26T02:29:42.546Z,11.20
2018-09-26T02:32:11.083Z,11.20
2018-09-26T02:34:39.923Z,11.30
2018-09-26T02:37:09.481Z,11.30
2018-09-26T02:39:39.400Z,11.30
2018-09-26T02:42:07.925Z,11.30
2018-09-26T02:44:36.460Z,11.30
2018-09-26T02:47:05.012Z,11.30
2018-09-26T02:49:33.529Z,11.40
2018-09-26T02:52:02.066Z,11.40
2018-09-26T02:54:30.589Z,11.40
2018-09-26T02:56:59.306Z,11.40
2018-09-26T02:59:27.829Z,11.40
2018-09-26T03:01:56.348Z,11.40
2018-09-26T03:04:24.953Z,11.40
2018-09-26T03:06:53.464Z,11.40
2018-09-26T03:09:21.985Z,11.40
2018-09-26T03:11:50.507Z,11.40
2018-09-26T03:14:19.081Z,11.30
2018-09-26T03:16:47.609Z,11.20
2018-09-26T03:19:16.168Z,11.20
2018-09-26T03:21:44.723Z,11.10
2018-09-26T03:24:13.275Z,11.00
2018-09-26T03:26:41.799Z,10.90
2018-09-26T03:29:10.597Z,10.90
2018-09-26T03:31:39.473Z,10.90
2018-09-26T03:34:08.173Z,10.80
2018-09-26T03:36:36.697Z,10.80
2018-09-26T03:39:07.148Z,10.80
2018-09-26T03:41:35.665Z,10.80
2018-09-26T03:44:04.188Z,10.90
2018-09-26T03:46:32.840Z,10.80
2018-09-26T03:49:01.709Z,10.80
2018-09-26T03:51:30.233Z,10.80
2018-09-26T03:53:58.759Z,10.80
2018-09-26T03:56:27.319Z,10.80
2018-09-26T03:58:55.846Z,10.80
2018-09-26T04:01:24.557Z,10.80
2018-09-26T04:03:53.310Z,10.70
2018-09-26T04:06:22.115Z,10.70
2018-09-26T04:08:50.651Z,10.70
2018-09-26T04:11:19.177Z,10.70
2018-09-26T04:13:47.712Z,10.70
2018-09-26T04:16:16.251Z,10.70
2018-09-26T04:19:15.603Z,10.70
2018-09-26T04:21:44.162Z,10.70
2018-09-26T04:24:13.026Z,10.60
2018-09-26T04:26:41.712Z,10.60
2018-09-26T04:29:10.151Z,10.50
2018-09-26T04:31:38.894Z,10.50
2018-09-26T04:34:07.444Z,10.40
2018-09-26T04:36:35.975Z,10.40
2018-09-26T04:39:07.806Z,10.30
2018-09-26T04:41:36.419Z,10.30
2018-09-26T04:44:05.044Z,10.30
2018-09-26T04:46:33.601Z,10.20
2018-09-26T04:49:02.131Z,10.10
2018-09-26T04:51:30.674Z,10.10
2018-09-26T04:53:59.203Z,10.10
2018-09-26T04:56:27.767Z,10.10
2018-09-26T04:58:56.614Z,10.10
2018-09-26T05:01:25.155Z,10.00
2018-09-26T05:03:53.714Z,10.00
2018-09-26T05:06:22.332Z,10.00
2018-09-26T05:08:51.175Z,10.00
2018-09-26T05:11:19.699Z,10.00
2018-09-26T05:13:48.230Z,10.10
2018-09-26T05:16:16.967Z,10.10
2018-09-26T05:18:45.502Z,10.00
2018-09-26T05:21:14.052Z,10.00
2018-09-26T05:23:42.587Z,9.90
2018-09-26T05:26:11.129Z,10.00
2018-09-26T05:28:39.659Z,10.00
2018-09-26T05:31:08.407Z,9.90
2018-09-26T05:33:37.253Z,9.90
2018-09-26T05:36:05.797Z,10.00
2018-09-26T05:38:34.329Z,9.90
2018-09-26T05:41:02.868Z,9.90
2018-09-26T05:43:31.413Z,9.90
2018-09-26T05:46:00.477Z,9.90
2018-09-26T05:48:29.190Z,9.90
2018-09-26T05:50:57.719Z,10.00
2018-09-26T05:53:26.337Z,9.90
2018-09-26T05:55:54.843Z,9.90
2018-09-26T05:58:23.905Z,9.90
2018-09-26T06:00:52.432Z,9.90
2018-09-26T06:03:20.971Z,9.90
2018-09-26T06:05:49.841Z,10.00
2018-09-26T06:08:18.374Z,10.00
2018-09-26T06:10:46.980Z,10.00
2018-09-26T06:13:15.839Z,10.00
2018-09-26T06:15:44.457Z,10.00
2018-09-26T06:18:13.011Z,10.00
2018-09-26T06:20:41.699Z,10.00
2018-09-26T06:23:10.455Z,10.00
2018-09-26T06:25:39.064Z,10.00
2018-09-26T06:28:07.603Z,9.90
2018-09-26T06:30:36.287Z,10.00
2018-09-26T06:33:04.946Z,10.00
2018-09-26T06:35:33.467Z,9.90
2018-09-26T06:38:01.995Z,9.90
2018-09-26T06:40:30.805Z,10.00
2018-09-26T06:42:59.303Z,10.00
2018-09-26T06:45:27.943Z,10.00
2018-09-26T06:47:56.478Z,10.00
2018-09-26T06:50:25.105Z,10.00
2018-09-26T06:52:53.722Z,10.00
2018-09-26T06:55:22.342Z,10.00
2018-09-26T06:57:50.951Z,10.00
2018-09-26T07:00:19.544Z,10.00
2018-09-26T07:02:48.078Z,10.00
2018-09-26T07:05:16.922Z,10.00
2018-09-26T07:07:45.482Z,10.00
2018-09-26T07:10:14.039Z,10.10
2018-09-26T07:12:42.592Z,10.10
2018-09-26T07:15:11.261Z,10.00
2018-09-26T07:17:39.818Z,10.00
2018-09-26T07:20:08.395Z,10.00
2018-09-26T07:22:36.955Z,10.00
2018-09-26T07:25:05.548Z,10.10
2018-09-26T07:27:34.099Z,10.10
2018-09-26T07:30:02.883Z,10.10
2018-09-26T07:32:31.463Z,10.10
2018-09-26T07:35:00.050Z,10.10
2018-09-26T07:37:28.616Z,10.10
2018-09-26T07:39:57.179Z,10.10
2018-09-26T07:42:25.767Z,10.10
2018-09-26T07:44:54.366Z,10.10
2018-09-26T07:47:22.899Z,10.20
2018-09-26T07:49:51.519Z,10.20
2018-09-26T07:52:20.303Z,10.20
2018-09-26T07:54:48.847Z,10.30
2018-09-26T07:57:17.395Z,10.30
2018-09-26T07:59:46.177Z,10.30
2018-09-26T08:02:14.933Z,10.40
2018-09-26T08:04:43.595Z,10.40
2018-09-26T08:07:12.133Z,10.40
2018-09-26T08:09:41.368Z,10.40
2018-09-26T08:12:10.360Z,10.40
2018-09-26T08:17:07.527Z,10.50
2018-09-26T08:19:36.071Z,10.50
2018-09-26T08:22:04.627Z,10.50
2018-09-26T08:24:33.196Z,10.60
2018-09-26T08:27:01.887Z,10.60
2018-09-26T08:34:27.214Z,10.70
2018-09-26T08:36:55.796Z,10.70
2018-09-26T08:39:24.331Z,10.70
2018-09-26T08:41:52.901Z,10.70
2018-09-26T08:44:21.443Z,10.80
2018-09-26T08:46:49.978Z,10.80
2018-09-26T08:56:43.299Z,10.90
2018-09-26T08:59:11.923Z,10.90
2018-09-26T09:01:46.695Z,10.90
2018-09-26T09:06:45.051Z,11.10
2018-09-26T09:24:03.762Z,11.40
2018-09-26T09:26:32.324Z,11.40
2018-09-26T09:29:00.852Z,11.40
2018-09-26T09:31:29.347Z,11.50
2018-09-26T09:33:57.838Z,11.50
2018-09-26T09:36:26.657Z,11.50
2018-09-26T09:38:55.225Z,11.50
2018-09-26T09:41:23.774Z,11.60
2018-09-26T09:43:52.313Z,11.60
2018-09-26T09:46:20.949Z,11.70
2018-09-26T10:11:10.109Z,12.20
2018-09-26T10:13:38.596Z,12.30
2018-09-26T10:16:07.121Z,12.20
2018-09-26T10:18:35.884Z,12.30
2018-09-26T10:21:04.424Z,12.30
2018-09-26T10:50:43.327Z,12.70
